Time;durP1;ratioP1;P1;durP2;ratioP2;P2;SDS_P1;SDS_P2;PMS_P1;PMS_P2;Temp;Humidity;BMP_temperature;BMP_pressure;BME280_temperature;BME280_humidity;BME280_pressure;Samples;Min_cycle;Max_cycle;Signal;HPM_P1;HPM_P2
2024/02/05 05:32:24;;;;;;;0.10;0.10;;;10.30;76.60;;;;;;6150969;23;20025;-78
2024/02/05 05:34:50;;;;;;;0.10;0.10;;;10.30;76.70;;;;;;6130272;23;20005;-79
2024/02/05 05:37:15;;;;;;;0.10;0.10;;;10.20;76.80;;;;;;6158957;23;20028;-78
2024/02/05 05:39:41;;;;;;;0.10;0.10;;;10.30;76.80;;;;;;6158534;23;20018;-78
2024/02/05 05:42:08;;;;;;;0.10;0.10;;;10.30;77.00;;;;;;6158551;23;19997;-78
2024/02/05 05:44:34;;;;;;;0.10;0.10;;;10.30;76.90;;;;;;6156865;23;20012;-78
2024/02/05 05:47:00;;;;;;;0.10;0.10;;;10.30;76.90;;;;;;6158586;23;20025;-78
2024/02/05 05:49:26;;;;;;;0.10;0.10;;;10.20;77.00;;;;;;6158365;23;20399;-78
2024/02/05 05:51:52;;;;;;;0.10;0.10;;;10.20;77.20;;;;;;6158546;23;20005;-78
2024/02/05 05:54:19;;;;;;;0.10;0.10;;;10.20;77.20;;;;;;6158078;23;20009;-78
2024/02/05 05:56:45;;;;;;;0.10;0.10;;;10.20;77.40;;;;;;6158801;23;20006;-77
2024/02/05 05:59:11;;;;;;;0.10;0.10;;;10.20;77.60;;;;;;6158237;23;20012;-79
2024/02/05 06:01:37;;;;;;;0.10;0.10;;;10.20;77.60;;;;;;6131002;23;20407;-78
2024/02/05 06:04:02;;;;;;;0.10;0.10;;;10.20;77.40;;;;;;6132520;23;20053;-78
2024/02/05 06:06:28;;;;;;;0.10;0.10;;;10.30;77.40;;;;;;6131591;23;20010;-78
2024/02/05 06:08:54;;;;;;;0.10;0.10;;;10.30;77.20;;;;;;6158621;23;20052;-78
2024/02/05 06:11:19;;;;;;;0.10;0.10;;;10.20;76.80;;;;;;6158949;23;20002;-76
2024/02/05 06:13:45;;;;;;;0.10;0.10;;;10.30;76.90;;;;;;6158377;23;20028;-77
2024/02/05 06:16:11;;;;;;;0.10;0.10;;;10.20;76.60;;;;;;6133595;23;20092;-78
2024/02/05 06:18:37;;;;;;;0.10;0.10;;;10.20;76.60;;;;;;6134468;23;20422;-75
2024/02/05 06:21:05;;;;;;;0.10;0.10;;;10.20;76.90;;;;;;6160302;23;20060;-80
2024/02/05 06:23:31;;;;;;;0.10;0.10;;;10.20;76.70;;;;;;6133916;23;20080;-81
2024/02/05 06:25:56;;;;;;;0.10;0.10;;;10.30;76.50;;;;;;6134095;23;20029;-77
2024/02/05 06:28:22;;;;;;;0.10;0.10;;;10.20;76.70;;;;;;6160249;23;20068;-76
2024/02/05 06:30:49;;;;;;;0.10;0.10;;;10.20;77.00;;;;;;6159674;23;20013;-78
2024/02/05 06:33:16;;;;;;;0.10;0.10;;;10.20;77.10;;;;;;6160005;23;20002;-77
2024/02/05 06:35:42;;;;;;;0.10;0.10;;;10.30;77.00;;;;;;6160069;23;20089;-77
2024/02/05 06:38:08;;;;;;;0.10;0.10;;;10.10;77.40;;;;;;6160835;23;20009;-78
2024/02/05 06:40:34;;;;;;;0.10;0.10;;;10.10;77.40;;;;;;6159941;23;20010;-77
2024/02/05 06:42:59;;;;;;;0.10;0.10;;;10.10;77.70;;;;;;6134385;23;20803;-76
2024/02/05 06:45:25;;;;;;;0.10;0.10;;;10.10;77.70;;;;;;6159969;23;20518;-75
2024/02/05 06:47:55;;;;;;;0.10;0.10;;;10.00;77.90;;;;;;6132523;23;20045;-78
2024/02/05 06:50:21;;;;;;;0.10;0.10;;;10.00;77.90;;;;;;6127700;23;20006;-78
2024/02/05 06:52:48;;;;;;;0.10;0.10;;;10.00;78.20;;;;;;6133652;23;20017;-78
2024/02/05 06:55:13;;;;;;;0.10;0.10;;;10.00;78.30;;;;;;6132687;23;20013;-78
2024/02/05 06:57:39;;;;;;;0.10;0.10;;;10.10;78.20;;;;;;6160003;23;20001;-78
2024/02/05 07:00:08;;;;;;;0.10;0.10;;;10.10;78.30;;;;;;6134003;23;20001;-78
2024/02/05 07:02:34;;;;;;;0.10;0.10;;;10.10;78.40;;;;;;6133268;23;20013;-78
2024/02/05 07:05:01;;;;;;;0.10;0.10;;;10.20;78.40;;;;;;6160257;23;20033;-78
2024/02/05 07:07:27;;;;;;;0.10;0.10;;;10.20;78.50;;;;;;6159253;23;19997;-78
2024/02/05 07:09:52;;;;;;;0.10;0.10;;;10.20;78.50;;;;;;6159637;23;20080;-78
2024/02/05 07:12:21;;;;;;;0.10;0.10;;;10.20;78.60;;;;;;6159815;23;20005;-77
2024/02/05 07:14:46;;;;;;;0.10;0.10;;;10.20;78.70;;;;;;6134425;23;20010;-77
2024/02/05 07:17:14;;;;;;;0.10;0.10;;;10.20;78.80;;;;;;6159384;23;20009;-78
2024/02/05 07:19:40;;;;;;;0.10;0.10;;;10.20;79.10;;;;;;6159976;23;20006;-77
2024/02/05 07:22:07;;;;;;;0.10;0.10;;;10.20;79.10;;;;;;6156322;23;20045;-78
2024/02/05 07:24:32;;;;;;;0.10;0.10;;;10.20;79.20;;;;;;6133301;23;20458;-79
2024/02/05 07:26:59;;;;;;;0.10;0.10;;;10.20;79.20;;;;;;6158705;23;20001;-77
2024/02/05 07:29:25;;;;;;;0.15;0.15;;;10.20;79.20;;;;;;6133527;23;20006;-77
2024/02/05 07:31:51;;;;;;;0.10;0.10;;;10.20;79.20;;;;;;6158938;23;20068;-77
2024/02/05 07:34:16;;;;;;;0.10;0.10;;;10.30;79.20;;;;;;6159957;23;20523;-77
2024/02/05 07:36:42;;;;;;;0.10;0.10;;;10.20;79.40;;;;;;6133311;23;20010;-77
2024/02/05 07:39:09;;;;;;;0.10;0.10;;;10.20;79.70;;;;;;6133635;23;20013;-77
2024/02/05 07:41:35;;;;;;;0.10;0.10;;;10.20;79.90;;;;;;6160103;23;20005;-77
2024/02/05 07:44:01;;;;;;;0.10;0.10;;;10.20;80.10;;;;;;6133315;23;20016;-77
2024/02/05 07:46:27;;;;;;;0.10;0.10;;;10.20;80.20;;;;;;6133579;23;20056;-77
2024/02/05 07:48:53;;;;;;;0.10;0.10;;;10.20;80.20;;;;;;6159658;23;20386;-77
2024/02/05 07:51:19;;;;;;;0.10;0.10;;;10.20;80.30;;;;;;6159337;23;20010;-77
2024/02/05 07:53:44;;;;;;;0.10;0.10;;;10.20;80.40;;;;;;6159446;23;20465;-77
2024/02/05 07:56:10;;;;;;;0.10;0.10;;;10.20;80.60;;;;;;6133520;23;20005;-77
2024/02/05 07:58:39;;;;;;;0.10;0.10;;;10.20;80.80;;;;;;6133312;23;20021;-77
2024/02/05 08:01:05;;;;;;;0.10;0.10;;;10.20;80.80;;;;;;6159259;23;20002;-77
2024/02/05 08:03:31;;;;;;;0.10;0.10;;;10.20;80.90;;;;;;6159579;23;20529;-78
2024/02/05 08:05:57;;;;;;;0.10;0.10;;;10.20;81.20;;;;;;6133042;23;20437;-77
2024/02/05 08:08:22;;;;;;;0.10;0.10;;;10.20;81.20;;;;;;6159830;23;20465;-77
2024/02/05 08:10:48;;;;;;;0.10;0.10;;;10.20;81.40;;;;;;6133520;23;20037;-77
2024/02/05 08:13:14;;;;;;;0.10;0.10;;;10.20;81.60;;;;;;6159136;23;20006;-77
2024/02/05 08:15:39;;;;;;;0.10;0.10;;;10.10;82.00;;;;;;6159719;23;20008;-77
2024/02/05 08:18:05;;;;;;;0.10;0.10;;;10.10;82.00;;;;;;6133301;23;20095;-78
2024/02/05 08:20:31;;;;;;;0.10;0.10;;;10.20;82.00;;;;;;6159821;23;20002;-77
2024/02/05 08:22:57;;;;;;;0.10;0.10;;;10.20;82.00;;;;;;6159358;23;20081;-77
2024/02/05 08:25:23;;;;;;;0.10;0.10;;;10.20;82.00;;;;;;6133393;23;20441;-78
2024/02/05 08:27:49;;;;;;;0.10;0.10;;;10.20;81.90;;;;;;6133633;23;20006;-77
2024/02/05 08:30:15;;;;;;;0.10;0.10;;;10.20;81.90;;;;;;6159279;23;20004;-78
2024/02/05 08:32:40;;;;;;;0.10;0.10;;;10.20;81.90;;;;;;6158865;23;20033;-77
2024/02/05 08:35:06;;;;;;;0.10;0.10;;;10.20;82.00;;;;;;6133194;23;20091;-77
2024/02/05 08:37:32;;;;;;;0.10;0.10;;;10.20;82.00;;;;;;6133029;23;20453;-78
2024/02/05 08:39:58;;;;;;;0.10;0.10;;;10.20;82.20;;;;;;6158992;23;20659;-78
2024/02/05 08:42:23;;;;;;;0.10;0.10;;;10.30;81.90;;;;;;6133590;23;20012;-78
2024/02/05 08:44:49;;;;;;;0.10;0.10;;;10.30;81.90;;;;;;6159144;23;20016;-78
2024/02/05 08:47:14;;;;;;;0.10;0.10;;;10.30;81.50;;;;;;6133634;23;20009;-77
2024/02/05 08:49:41;;;;;;;0.10;0.10;;;10.40;81.70;;;;;;6133054;23;20335;-78
2024/02/05 08:52:06;;;;;;;0.10;0.10;;;10.40;81.60;;;;;;6133279;23;20005;-78
2024/02/05 08:54:35;;;;;;;0.10;0.10;;;10.40;81.60;;;;;;6159399;23;20008;-77
2024/02/05 08:57:03;;;;;;;0.10;0.10;;;10.40;81.60;;;;;;6133126;23;20013;-77
2024/02/05 08:59:30;;;;;;;0.17;0.10;;;10.50;81.50;;;;;;6132874;23;20010;-77
2024/02/05 09:01:56;;;;;;;0.10;0.10;;;10.50;81.60;;;;;;6159331;23;20010;-78
2024/02/05 09:04:23;;;;;;;0.10;0.10;;;10.50;81.50;;;;;;6159218;23;20362;-77
2024/02/05 09:06:48;;;;;;;0.10;0.10;;;10.50;81.50;;;;;;6158536;23;20009;-78
2024/02/05 09:09:14;;;;;;;0.10;0.10;;;10.60;81.50;;;;;;6133379;23;20005;-78
2024/02/05 09:11:40;;;;;;;0.10;0.10;;;10.70;81.40;;;;;;6133407;23;20002;-77
2024/02/05 09:14:05;;;;;;;0.17;0.17;;;10.60;81.40;;;;;;6133213;23;20009;-77
2024/02/05 09:16:31;;;;;;;0.10;0.10;;;10.60;81.10;;;;;;6159083;23;20008;-77
2024/02/05 09:18:56;;;;;;;0.20;0.20;;;10.70;81.10;;;;;;6132249;23;20005;-77
2024/02/05 09:21:22;;;;;;;0.10;0.10;;;10.70;81.10;;;;;;6159455;23;20783;-77
2024/02/05 09:23:48;;;;;;;0.10;0.10;;;10.60;81.00;;;;;;6159223;23;20002;-77
2024/02/05 09:26:13;;;;;;;0.10;0.10;;;10.70;80.90;;;;;;6158369;23;20248;-78
2024/02/05 09:28:39;;;;;;;0.10;0.10;;;10.70;80.80;;;;;;6133124;23;20092;-78
2024/02/05 09:31:05;;;;;;;0.10;0.10;;;10.70;80.90;;;;;;6158858;23;20088;-78
2024/02/05 09:33:31;;;;;;;0.10;0.10;;;10.80;80.50;;;;;;6158860;23;20092;-78
2024/02/05 09:35:56;;;;;;;0.10;0.10;;;10.80;80.50;;;;;;6132680;23;20064;-78
2024/02/05 09:38:23;;;;;;;0.10;0.10;;;10.80;80.20;;;;;;6158790;23;20001;-78
2024/02/05 09:41:11;;;;;;;0.10;0.10;;;10.80;80.40;;;;;;6132797;23;20020;-78
2024/02/05 09:43:37;;;;;;;0.10;0.10;;;10.90;79.90;;;;;;6158957;23;20001;-78
2024/02/05 09:46:04;;;;;;;0.10;0.10;;;10.90;79.90;;;;;;6158873;23;20383;-78
2024/02/05 09:48:36;;;;;;;0.10;0.10;;;11.00;79.60;;;;;;6132845;23;20501;-78
2024/02/05 09:51:02;;;;;;;0.10;0.10;;;11.00;79.60;;;;;;6160184;23;20004;-77
2024/02/05 09:53:29;;;;;;;0.10;0.10;;;11.00;79.10;;;;;;6134168;23;20056;-77
2024/02/05 09:55:56;;;;;;;0.10;0.10;;;11.10;79.50;;;;;;6135274;23;20012;-78
2024/02/05 09:58:22;;;;;;;0.10;0.10;;;11.20;79.30;;;;;;6133962;23;20084;-78
2024/02/05 10:00:47;;;;;;;0.10;0.10;;;11.20;78.80;;;;;;6160662;23;20001;-78
2024/02/05 10:03:16;;;;;;;0.10;0.10;;;11.20;78.90;;;;;;6160874;23;20009;-78
2024/02/05 10:05:42;;;;;;;0.10;0.10;;;11.30;78.70;;;;;;6160810;23;20018;-78
2024/02/05 10:08:08;;;;;;;0.10;0.10;;;11.30;78.00;;;;;;6160793;23;20072;-77
2024/02/05 10:10:37;;;;;;;0.10;0.10;;;11.50;77.70;;;;;;6160759;23;19997;-77
2024/02/05 10:13:04;;;;;;;0.10;0.10;;;11.50;77.40;;;;;;6160244;23;20024;-78
2024/02/05 10:15:30;;;;;;;0.10;0.10;;;11.50;77.80;;;;;;6160957;23;20081;-78
2024/02/05 10:17:55;;;;;;;0.10;0.10;;;11.40;77.60;;;;;;6160626;23;20005;-78
2024/02/05 10:20:34;;;;;;;0.10;0.10;;;11.30;77.70;;;;;;6134635;23;20006;-78
2024/02/05 10:23:00;;;;;;;0.10;0.10;;;11.30;77.90;;;;;;6160317;23;20001;-78
2024/02/05 10:25:27;;;;;;;0.10;0.10;;;11.20;78.00;;;;;;6160650;23;20033;-78
2024/02/05 10:28:03;;;;;;;0.10;0.10;;;11.20;77.70;;;;;;6134633;23;20001;-77
2024/02/05 10:30:30;;;;;;;0.10;0.10;;;11.30;78.30;;;;;;6159901;23;20013;-78
2024/02/05 10:33:00;;;;;;;0.10;0.10;;;11.20;78.30;;;;;;6134651;23;20335;-78
2024/02/05 10:35:27;;;;;;;0.10;0.10;;;11.30;78.50;;;;;;6159909;23;20002;-78
2024/02/05 10:38:09;;;;;;;0.10;0.10;;;11.40;78.40;;;;;;6160596;23;20355;-78
2024/02/05 10:40:36;;;;;;;0.10;0.10;;;11.50;78.20;;;;;;6134239;23;20013;-78
2024/02/05 10:43:05;;;;;;;0.10;0.10;;;11.50;77.80;;;;;;6160393;23;20037;-78
2024/02/05 10:45:33;;;;;;;0.10;0.10;;;11.50;77.80;;;;;;6134347;23;20036;-78
2024/02/05 10:48:00;;;;;;;0.10;0.10;;;11.40;78.10;;;;;;6134033;23;20391;-77
2024/02/05 10:50:25;;;;;;;0.20;0.20;;;11.40;78.10;;;;;;6160904;23;20052;-78
2024/02/05 10:52:52;;;;;;;0.10;0.10;;;11.60;78.30;;;;;;6159940;23;20104;-78
2024/02/05 10:55:18;;;;;;;0.10;0.10;;;11.70;78.00;;;;;;6160247;23;20002;-78
2024/02/05 10:57:46;;;;;;;0.10;0.10;;;11.90;77.60;;;;;;6160224;23;20005;-78
2024/02/05 11:00:13;;;;;;;0.20;0.20;;;12.00;77.10;;;;;;6159865;23;20008;-78
2024/02/05 11:03:06;;;;;;;0.10;0.10;;;12.30;76.80;;;;;;6133932;23;20033;-78
2024/02/05 11:05:33;;;;;;;0.10;0.10;;;12.50;76.60;;;;;;6160131;23;20005;-78
2024/02/05 11:08:26;;;;;;;0.10;0.10;;;12.50;75.80;;;;;;6160224;23;20006;-77
2024/02/05 11:10:55;;;;;;;0.17;0.17;;;12.50;75.80;;;;;;6133604;23;20430;-78
2024/02/05 11:13:24;;;;;;;0.10;0.10;;;12.50;75.60;;;;;;6160085;23;20025;-78
2024/02/05 11:15:51;;;;;;;0.10;0.10;;;12.50;75.30;;;;;;6133410;23;20032;-78
2024/02/05 11:18:24;;;;;;;0.10;0.10;;;12.60;75.70;;;;;;6160232;23;20010;-78
2024/02/05 11:20:52;;;;;;;0.10;0.10;;;12.40;75.50;;;;;;6159827;23;20008;-77
2024/02/05 11:23:19;;;;;;;0.10;0.10;;;12.30;75.90;;;;;;6159996;23;20001;-78
2024/02/05 11:25:47;;;;;;;0.10;0.10;;;12.30;76.20;;;;;;6159779;23;20335;-77
2024/02/05 11:28:13;;;;;;;0.10;0.10;;;12.30;76.20;;;;;;6159507;23;20001;-78
2024/02/05 11:30:43;;;;;;;0.10;0.10;;;12.20;76.30;;;;;;6159465;23;20014;-78
2024/02/05 11:33:09;;;;;;;0.10;0.10;;;12.10;76.80;;;;;;6134415;23;20001;-78
2024/02/05 11:35:35;;;;;;;0.10;0.10;;;12.10;77.10;;;;;;6133503;23;20013;-78
2024/02/05 11:38:10;;;;;;;0.10;0.10;;;12.10;77.20;;;;;;6134266;23;20040;-78
2024/02/05 11:40:40;;;;;;;0.10;0.10;;;12.10;77.50;;;;;;6159503;23;20084;-78
2024/02/05 11:43:06;;;;;;;0.10;0.10;;;12.10;77.40;;;;;;6159809;23;20080;-78
2024/02/05 11:45:33;;;;;;;0.10;0.10;;;12.10;77.20;;;;;;6133649;23;20064;-78
2024/02/05 11:48:06;;;;;;;0.10;0.10;;;12.10;77.60;;;;;;6133303;23;20020;-78
2024/02/05 11:50:32;;;;;;;0.10;0.10;;;12.20;77.30;;;;;;6160034;23;20022;-78
2024/02/05 11:52:58;;;;;;;0.10;0.10;;;12.20;77.70;;;;;;6133329;23;20006;-78
2024/02/05 11:55:26;;;;;;;0.10;0.10;;;12.20;77.70;;;;;;6133700;23;20056;-78
2024/02/05 11:57:52;;;;;;;0.10;0.10;;;12.20;77.70;;;;;;6133476;23;20009;-78
2024/02/05 12:00:19;;;;;;;0.10;0.10;;;12.20;77.70;;;;;;6132990;23;20017;-78
2024/02/05 12:02:46;;;;;;;0.10;0.10;;;12.30;77.70;;;;;;6159945;23;20002;-77
2024/02/05 12:05:13;;;;;;;0.10;0.10;;;12.20;77.80;;;;;;6133255;23;20009;-78
2024/02/05 12:07:39;;;;;;;0.10;0.10;;;12.30;77.70;;;;;;6159601;23;19997;-78
2024/02/05 12:10:05;;;;;;;0.10;0.10;;;12.30;77.40;;;;;;6159239;23;19997;-78
2024/02/05 12:12:31;;;;;;;0.10;0.10;;;12.30;77.70;;;;;;6132842;23;20057;-78
2024/02/05 12:14:57;;;;;;;0.10;0.10;;;12.40;77.90;;;;;;6159327;23;20057;-78
2024/02/05 12:17:23;;;;;;;0.10;0.10;;;12.30;77.90;;;;;;6159905;23;20002;-78
2024/02/05 12:20:00;;;;;;;0.08;0.08;;;12.40;77.70;;;;;;6133431;23;20009;-78
2024/02/05 12:22:30;;;;;;;0.10;0.10;;;12.20;78.10;;;;;;6133983;23;20025;-78
2024/02/05 12:24:56;;;;;;;0.10;0.10;;;12.20;78.10;;;;;;6159106;23;20533;-78
2024/02/05 12:27:22;;;;;;;0.10;0.10;;;12.30;78.20;;;;;;6158963;23;20031;-78
2024/02/05 12:29:48;;;;;;;0.10;0.10;;;12.30;77.90;;;;;;6133178;23;20005;-78
2024/02/05 12:32:14;;;;;;;0.10;0.10;;;12.30;78.10;;;;;;6159865;23;20170;-78
2024/02/05 12:34:40;;;;;;;0.10;0.10;;;12.30;78.00;;;;;;6158854;23;20025;-78
2024/02/05 12:37:08;;;;;;;0.10;0.10;;;12.20;78.00;;;;;;6133707;23;20025;-78
2024/02/05 12:39:36;;;;;;;0.10;0.10;;;12.20;78.00;;;;;;6159200;23;20006;-78
2024/02/05 12:42:02;;;;;;;0.10;0.10;;;12.10;78.40;;;;;;6159458;23;20029;-78
2024/02/05 12:44:28;;;;;;;0.10;0.10;;;12.10;78.40;;;;;;6159006;23;20009;-78
2024/02/05 12:46:54;;;;;;;0.10;0.10;;;12.10;78.60;;;;;;6132950;23;20480;-78
2024/02/05 12:49:22;;;;;;;0.10;0.10;;;12.20;78.60;;;;;;6159255;23;20002;-78
2024/02/05 12:51:49;;;;;;;0.10;0.10;;;12.10;79.20;;;;;;6159296;23;20004;-78
2024/02/05 12:54:15;;;;;;;0.10;0.10;;;12.10;79.40;;;;;;6159171;23;20081;-78
2024/02/05 12:56:42;;;;;;;0.10;0.10;;;12.00;79.50;;;;;;6159416;23;19998;-78
2024/02/05 12:59:08;;;;;;;0.10;0.10;;;12.00;79.70;;;;;;6132684;23;20081;-78
2024/02/05 13:01:34;;;;;;;0.10;0.10;;;12.10;79.70;;;;;;6132490;23;20005;-78
2024/02/05 13:04:00;;;;;;;0.10;0.10;;;12.20;79.50;;;;;;6133246;23;20002;-78
2024/02/05 13:06:26;;;;;;;0.10;0.10;;;12.20;79.30;;;;;;6159108;23;20033;-78
2024/02/05 13:08:56;;;;;;;0.10;0.10;;;12.30;78.90;;;;;;6159116;23;20001;-78
2024/02/05 13:11:24;;;;;;;0.10;0.10;;;12.30;78.90;;;;;;6132667;23;20005;-78
2024/02/05 13:13:51;;;;;;;0.10;0.10;;;12.30;79.00;;;;;;6158988;23;20006;-78
2024/02/05 13:16:17;;;;;;;0.10;0.10;;;12.30;78.70;;;;;;6133041;23;20020;-78
2024/02/05 13:18:42;;;;;;;0.10;0.10;;;12.30;78.80;;;;;;6159181;23;20077;-78
2024/02/05 13:21:08;;;;;;;0.10;0.10;;;12.30;78.70;;;;;;6158881;23;20061;-78
2024/02/05 13:23:34;;;;;;;0.10;0.10;;;12.30;79.10;;;;;;6133569;23;20041;-78
2024/02/05 13:26:03;;;;;;;0.10;0.10;;;12.30;79.30;;;;;;6160477;23;20092;-78
2024/02/05 13:28:29;;;;;;;0.10;0.10;;;12.20;80.00;;;;;;6161260;23;20057;-78
2024/02/05 13:30:54;;;;;;;0.10;0.10;;;12.00;80.40;;;;;;6139307;23;20435;-78
2024/02/05 13:33:20;;;;;;;0.10;0.10;;;12.00;80.80;;;;;;6161128;23;20006;-78
2024/02/05 13:35:47;;;;;;;0.10;0.10;;;11.90;81.40;;;;;;6159533;23;20406;-78
2024/02/05 13:38:12;;;;;;;0.10;0.10;;;12.00;81.80;;;;;;6160080;23;20005;-78
2024/02/05 13:40:38;;;;;;;0.10;0.10;;;12.00;81.70;;;;;;6160575;23;20229;-78
2024/02/05 13:43:04;;;;;;;0.10;0.10;;;12.10;82.00;;;;;;6159685;23;20032;-78
2024/02/05 13:45:30;;;;;;;0.10;0.10;;;12.10;82.00;;;;;;6160949;23;20077;-78
2024/02/05 13:47:56;;;;;;;0.10;0.10;;;12.10;82.10;;;;;;6159195;23;20013;-78
2024/02/05 13:50:22;;;;;;;0.10;0.10;;;12.10;82.20;;;;;;6159620;23;20009;-78
2024/02/05 13:52:47;;;;;;;0.10;0.10;;;12.20;82.30;;;;;;6160743;23;19997;-78
2024/02/05 13:55:14;;;;;;;0.10;0.10;;;12.10;81.90;;;;;;6158766;23;20009;-78
2024/02/05 13:57:41;;;;;;;0.10;0.10;;;12.10;82.00;;;;;;6159037;23;20065;-78
2024/02/05 14:00:09;;;;;;;0.10;0.10;;;12.20;82.00;;;;;;6184667;23;20454;-78
2024/02/05 14:02:34;;;;;;;0.10;0.10;;;12.20;81.80;;;;;;6160785;23;20438;-78
2024/02/05 14:05:01;;;;;;;0.10;0.10;;;12.20;81.70;;;;;;6158734;23;20009;-78
2024/02/05 14:07:27;;;;;;;0.10;0.10;;;12.20;81.80;;;;;;6161023;23;20334;-78
2024/02/05 14:09:53;;;;;;;0.10;0.10;;;12.20;81.80;;;;;;6159514;23;20048;-78
2024/02/05 14:12:19;;;;;;;0.10;0.10;;;12.20;81.90;;;;;;6160477;23;20001;-78
2024/02/05 14:14:45;;;;;;;0.10;0.10;;;12.00;82.00;;;;;;6160751;23;20430;-78
2024/02/05 14:17:11;;;;;;;0.10;0.10;;;12.00;82.00;;;;;;6160511;23;20076;-78
2024/02/05 14:19:36;;;;;;;0.10;0.10;;;12.00;82.00;;;;;;6159462;23;20443;-77
2024/02/05 14:22:03;;;;;;;0.10;0.10;;;12.00;81.90;;;;;;6158712;23;20016;-77
2024/02/05 14:24:29;;;;;;;0.10;0.10;;;12.00;82.00;;;;;;6160588;23;20056;-78
2024/02/05 14:26:54;;;;;;;0.10;0.10;;;12.10;82.10;;;;;;6160358;23;19997;-78
2024/02/05 14:29:21;;;;;;;0.10;0.10;;;12.10;82.10;;;;;;6160420;23;20441;-79
2024/02/05 14:31:48;;;;;;;0.10;0.10;;;12.20;82.00;;;;;;6160456;23;20014;-79
2024/02/05 14:34:14;;;;;;;0.10;0.10;;;12.00;82.10;;;;;;6160499;23;20061;-79
2024/02/05 14:36:42;;;;;;;0.10;0.10;;;11.90;82.70;;;;;;6133985;23;20009;-77
2024/02/05 14:39:08;;;;;;;0.00;0.00;;;11.90;82.90;;;;;;6133795;23;20001;-80
2024/02/05 14:41:34;;;;;;;0.10;0.10;;;11.90;82.80;;;;;;6160423;23;20338;-80
2024/02/05 14:44:01;;;;;;;0.10;0.10;;;11.90;82.80;;;;;;6160052;23;19998;-80
2024/02/05 14:46:27;;;;;;;0.10;0.10;;;11.90;83.10;;;;;;6133641;23;20080;-80
2024/02/05 14:48:53;;;;;;;0.10;0.10;;;11.80;83.20;;;;;;6157574;23;20012;-80
2024/02/05 14:51:18;;;;;;;0.10;0.10;;;11.80;83.30;;;;;;6131832;23;20398;-80
2024/02/05 14:53:44;;;;;;;0.10;0.10;;;11.90;83.30;;;;;;6160282;23;20089;-80
2024/02/05 14:56:09;;;;;;;0.10;0.10;;;11.90;83.30;;;;;;6159163;23;20435;-80
2024/02/05 14:58:35;;;;;;;0.10;0.10;;;11.90;83.30;;;;;;6159949;23;20002;-80
2024/02/05 15:01:01;;;;;;;0.10;0.10;;;11.80;83.20;;;;;;6159515;23;20058;-81
2024/02/05 15:03:26;;;;;;;0.10;0.10;;;11.80;83.50;;;;;;6158738;23;20001;-81
2024/02/05 15:05:52;;;;;;;0.10;0.10;;;11.80;83.60;;;;;;6159062;23;20012;-83
2024/02/05 15:08:17;;;;;;;0.10;0.10;;;11.80;83.60;;;;;;6160155;23;20005;-80
2024/02/05 15:10:43;;;;;;;0.10;0.10;;;11.80;83.60;;;;;;6159808;23;20008;-80
2024/02/05 15:13:09;;;;;;;0.10;0.10;;;11.80;83.40;;;;;;6133976;23;20465;-81
2024/02/05 15:15:34;;;;;;;0.10;0.10;;;11.80;83.40;;;;;;6159503;23;20005;-81
2024/02/05 15:18:00;;;;;;;0.10;0.10;;;11.70;83.20;;;;;;6159401;23;20009;-80
2024/02/05 15:20:25;;;;;;;0.10;0.10;;;11.70;83.50;;;;;;6160199;23;20020;-81
2024/02/05 15:22:51;;;;;;;0.10;0.10;;;11.70;83.50;;;;;;6159796;23;20702;-80
2024/02/05 15:25:17;;;;;;;0.10;0.10;;;11.70;83.40;;;;;;6158848;23;20006;-80
2024/02/05 15:27:42;;;;;;;0.10;0.10;;;11.70;83.60;;;;;;6159654;23;20420;-81
2024/02/05 15:30:08;;;;;;;0.10;0.10;;;11.70;83.50;;;;;;6159874;23;19998;-80
2024/02/05 15:32:34;;;;;;;0.10;0.10;;;11.70;83.60;;;;;;6132803;23;20013;-79
2024/02/05 15:35:00;;;;;;;0.10;0.10;;;11.60;83.60;;;;;;6133223;23;20450;-79
2024/02/05 15:37:26;;;;;;;0.10;0.10;;;11.60;83.50;;;;;;6131673;23;20013;-79
2024/02/05 15:39:54;;;;;;;0.10;0.10;;;11.60;83.50;;;;;;6159732;23;20046;-79
2024/02/05 15:42:19;;;;;;;0.10;0.10;;;11.60;83.50;;;;;;6132628;23;20316;-78
2024/02/05 15:44:46;;;;;;;0.10;0.10;;;11.60;83.60;;;;;;6157837;23;20076;-79
2024/02/05 15:47:12;;;;;;;0.10;0.10;;;11.60;83.60;;;;;;6133099;23;20006;-79
2024/02/05 15:49:38;;;;;;;0.10;0.10;;;11.60;83.70;;;;;;6159397;23;19998;-79
2024/02/05 15:52:04;;;;;;;0.10;0.10;;;11.60;83.70;;;;;;6158805;23;19994;-79
2024/02/05 15:54:30;;;;;;;0.10;0.10;;;11.60;83.70;;;;;;6159700;23;20036;-79
2024/02/05 15:56:56;;;;;;;0.10;0.10;;;11.50;83.90;;;;;;6133136;23;20001;-79
2024/02/05 15:59:22;;;;;;;0.10;0.10;;;11.50;84.00;;;;;;6159247;23;20005;-79
2024/02/05 16:01:48;;;;;;;0.10;0.10;;;11.40;84.20;;;;;;6133413;23;20009;-79
2024/02/05 16:04:13;;;;;;;0.10;0.10;;;11.40;84.20;;;;;;6133788;23;20009;-79
2024/02/05 16:06:39;;;;;;;0.10;0.10;;;11.40;84.30;;;;;;6158900;23;20005;-79
2024/02/05 16:09:08;;;;;;;0.10;0.10;;;11.30;84.60;;;;;;6159599;23;20001;-79
2024/02/05 16:11:34;;;;;;;0.10;0.10;;;11.30;84.70;;;;;;6133122;23;20020;-79
2024/02/05 16:14:00;;;;;;;0.10;0.10;;;11.30;84.80;;;;;;6133103;23;20061;-79
2024/02/05 16:16:26;;;;;;;0.10;0.10;;;11.20;84.90;;;;;;6133213;23;20009;-79
2024/02/05 16:18:51;;;;;;;0.10;0.10;;;11.20;85.10;;;;;;6159157;23;20012;-79
2024/02/05 16:21:17;;;;;;;0.10;0.10;;;11.20;85.30;;;;;;6133279;23;20002;-79
2024/02/05 16:23:42;;;;;;;0.10;0.10;;;11.20;85.20;;;;;;6159161;23;19998;-79
2024/02/05 16:26:08;;;;;;;0.10;0.10;;;11.20;85.40;;;;;;6132767;23;20064;-78
2024/02/05 16:28:34;;;;;;;0.10;0.10;;;11.20;85.40;;;;;;6159132;23;20005;-78
2024/02/05 16:30:59;;;;;;;0.10;0.10;;;11.20;85.40;;;;;;6159246;23;20017;-79
2024/02/05 16:33:25;;;;;;;0.10;0.10;;;11.10;85.30;;;;;;6133304;23;20006;-79
2024/02/05 16:35:50;;;;;;;0.10;0.10;;;11.10;85.50;;;;;;6159156;23;20005;-79
2024/02/05 16:38:16;;;;;;;0.10;0.10;;;11.10;85.40;;;;;;6158336;23;20064;-79
2024/02/05 16:40:42;;;;;;;0.10;0.10;;;11.20;85.40;;;;;;6132348;23;20016;-79
2024/02/05 16:43:07;;;;;;;0.10;0.10;;;11.20;85.50;;;;;;6132732;23;20067;-79
2024/02/05 16:45:33;;;;;;;0.10;0.10;;;11.20;85.50;;;;;;6132805;23;20032;-79
2024/02/05 16:48:01;;;;;;;0.10;0.10;;;11.10;85.50;;;;;;6159344;23;20002;-83
2024/02/05 16:50:27;;;;;;;0.10;0.10;;;11.10;85.50;;;;;;6133084;23;20016;-79
2024/02/05 16:52:52;;;;;;;0.10;0.10;;;11.10;85.60;;;;;;6158483;23;20029;-79
2024/02/05 16:55:18;;;;;;;0.10;0.10;;;11.00;85.60;;;;;;6158453;23;20031;-79
2024/02/05 16:57:44;;;;;;;0.10;0.10;;;11.00;85.80;;;;;;6158483;23;20035;-79
2024/02/05 17:00:11;;;;;;;0.10;0.10;;;11.00;85.80;;;;;;6158430;23;20081;-79
2024/02/05 17:02:37;;;;;;;0.10;0.10;;;11.00;85.80;;;;;;6132350;23;20013;-79
2024/02/05 17:05:03;;;;;;;0.10;0.10;;;10.90;85.80;;;;;;6159213;23;20409;-79
2024/02/05 17:07:28;;;;;;;0.10;0.10;;;10.90;85.90;;;;;;6132541;23;20005;-79
2024/02/05 17:09:54;;;;;;;0.10;0.10;;;10.90;86.00;;;;;;6158807;23;20024;-79
2024/02/05 17:12:20;;;;;;;0.10;0.10;;;10.80;86.10;;;;;;6132755;23;20085;-79
2024/02/05 17:14:46;;;;;;;0.10;0.10;;;10.90;86.00;;;;;;6159089;23;20017;-79
2024/02/05 17:17:11;;;;;;;0.10;0.10;;;10.90;86.00;;;;;;6132427;23;20009;-79
2024/02/05 17:19:40;;;;;;;0.10;0.10;;;10.80;86.00;;;;;;6132934;23;20089;-79
2024/02/05 17:22:09;;;;;;;0.10;0.10;;;10.90;86.10;;;;;;6159041;23;20005;-79
2024/02/05 17:24:34;;;;;;;0.10;0.10;;;10.80;86.20;;;;;;6132420;23;20012;-79
2024/02/05 17:27:01;;;;;;;0.10;0.10;;;10.80;86.00;;;;;;6158883;23;20393;-79
2024/02/05 17:29:27;;;;;;;0.10;0.10;;;10.80;86.10;;;;;;6158911;23;20008;-79
2024/02/05 17:31:56;;;;;;;0.10;0.10;;;10.80;86.00;;;;;;6157977;23;20037;-79
2024/02/05 17:34:22;;;;;;;0.10;0.10;;;10.80;86.00;;;;;;6126950;23;20005;-79
2024/02/05 17:36:51;;;;;;;0.10;0.10;;;10.80;86.10;;;;;;6130502;23;20039;-79
2024/02/05 17:39:18;;;;;;;0.10;0.10;;;10.80;86.30;;;;;;6157465;23;20081;-79
2024/02/05 17:41:43;;;;;;;0.10;0.10;;;10.80;86.20;;;;;;6158833;23;20080;-79
2024/02/05 17:44:09;;;;;;;0.10;0.10;;;10.80;86.20;;;;;;6131910;23;20009;-79
2024/02/05 17:46:35;;;;;;;0.10;0.10;;;10.80;86.20;;;;;;6132382;23;20081;-78
2024/02/05 17:49:02;;;;;;;0.10;0.10;;;10.80;86.30;;;;;;6158638;23;20005;-79
2024/02/05 17:51:27;;;;;;;0.10;0.10;;;10.80;86.30;;;;;;6158154;23;19997;-79
2024/02/05 17:53:53;;;;;;;0.10;0.10;;;10.80;86.20;;;;;;6132434;23;20002;-79
2024/02/05 17:56:18;;;;;;;0.10;0.10;;;10.80;86.30;;;;;;6132472;23;20043;-77
2024/02/05 17:58:53;;;;;;;0.10;0.10;;;10.80;86.20;;;;;;6156815;23;20005;-82
2024/02/05 18:01:19;;;;;;;0.10;0.10;;;10.80;86.20;;;;;;6131568;23;20033;-77
2024/02/05 18:03:45;;;;;;;0.10;0.10;;;10.80;86.30;;;;;;6157511;23;20013;-77
2024/02/05 18:06:21;;;;;;;0.10;0.10;;;10.80;86.20;;;;;;6157382;23;20009;-78
2024/02/05 18:08:47;;;;;;;0.10;0.10;;;10.80;86.20;;;;;;6157056;23;20137;-76
2024/02/05 18:11:13;;;;;;;0.10;0.10;;;10.80;86.20;;;;;;6131602;23;20006;-82
2024/02/05 18:13:38;;;;;;;0.10;0.10;;;10.80;86.00;;;;;;6160874;23;20001;-78
2024/02/05 18:16:05;;;;;;;0.10;0.10;;;10.80;86.00;;;;;;6164368;23;20028;-74